sensor_id;sensor_type;location;lat;lon;timestamp;pressure;altitude;pressure_sealevel;temperature;humidity
38786;BME280;24535;45.508;12.252;2023-11-21T00:02:13;100995.78;;;13.30;60.21
38786;BME280;24535;45.508;12.252;2023-11-21T00:04:38;100999.50;;;13.27;60.05
38786;BME280;24535;45.508;12.252;2023-11-21T00:07:04;100993.03;;;13.31;59.88
38786;BME280;24535;45.508;12.252;2023-11-21T00:09:31;100987.03;;;13.29;60.03
38786;BME280;24535;45.508;12.252;2023-11-21T00:11:57;100987.94;;;13.28;60.54
38786;BME280;24535;45.508;12.252;2023-11-21T00:14:25;100981.94;;;13.26;60.73
38786;BME280;24535;45.508;12.252;2023-11-21T00:16:50;100980.28;;;13.25;60.12
38786;BME280;24535;45.508;12.252;2023-11-21T00:19:16;100982.25;;;13.22;59.71
38786;BME280;24535;45.508;12.252;2023-11-21T00:21:42;100976.22;;;13.20;60.32
38786;BME280;24535;45.508;12.252;2023-11-21T00:24:10;100980.69;;;13.19;60.11
38786;BME280;24535;45.508;12.252;2023-11-21T00:26:35;100974.66;;;13.17;60.43
38786;BME280;24535;45.508;12.252;2023-11-21T00:29:03;100982.69;;;13.16;60.59
38786;BME280;24535;45.508;12.252;2023-11-21T00:31:28;100981.75;;;13.17;60.47
38786;BME280;24535;45.508;12.252;2023-11-21T00:33:56;100976.56;;;13.15;60.69
38786;BME280;24535;45.508;12.252;2023-11-21T00:36:21;100973.91;;;13.15;60.56
38786;BME280;24535;45.508;12.252;2023-11-21T00:38:47;100968.00;;;13.11;60.61
38786;BME280;24535;45.508;12.252;2023-11-21T00:41:13;100962.84;;;13.10;60.37
38786;BME280;24535;45.508;12.252;2023-11-21T00:43:39;100945.38;;;13.07;60.78
38786;BME280;24535;45.508;12.252;2023-11-21T00:46:05;100932.38;;;13.04;60.45
38786;BME280;24535;45.508;12.252;2023-11-21T00:48:34;100934.31;;;13.02;61.01
38786;BME280;24535;45.508;12.252;2023-11-21T00:50:59;100923.88;;;13.01;61.00
38786;BME280;24535;45.508;12.252;2023-11-21T00:53:25;100936.97;;;13.02;60.31
38786;BME280;24535;45.508;12.252;2023-11-21T00:55:50;100923.88;;;13.01;60.60
38786;BME280;24535;45.508;12.252;2023-11-21T00:58:20;100921.31;;;12.99;60.40
38786;BME280;24535;45.508;12.252;2023-11-21T01:00:46;100918.78;;;12.98;61.20
38786;BME280;24535;45.508;12.252;2023-11-21T01:03:13;100912.53;;;12.99;60.67
38786;BME280;24535;45.508;12.252;2023-11-21T01:05:39;100897.50;;;12.99;60.30
38786;BME280;24535;45.508;12.252;2023-11-21T01:08:04;100882.63;;;12.98;60.59
38786;BME280;24535;45.508;12.252;2023-11-21T01:10:31;100888.03;;;12.97;60.90
38786;BME280;24535;45.508;12.252;2023-11-21T01:12:56;100871.53;;;12.93;60.56
38786;BME280;24535;45.508;12.252;2023-11-21T01:15:23;100866.34;;;12.92;60.76
38786;BME280;24535;45.508;12.252;2023-11-21T01:17:51;100859.50;;;12.89;61.15
38786;BME280;24535;45.508;12.252;2023-11-21T01:20:17;100854.31;;;12.87;60.50
38786;BME280;24535;45.508;12.252;2023-11-21T01:22:43;100856.03;;;12.89;61.50
38786;BME280;24535;45.508;12.252;2023-11-21T01:25:08;100859.50;;;12.89;61.19
38786;BME280;24535;45.508;12.252;2023-11-21T01:27:34;100857.78;;;12.88;61.42
38786;BME280;24535;45.508;12.252;2023-11-21T01:30:01;100854.94;;;12.91;60.95
38786;BME280;24535;45.508;12.252;2023-11-21T01:32:27;100860.13;;;12.93;60.75
38786;BME280;24535;45.508;12.252;2023-11-21T01:34:54;100873.00;;;12.97;60.89
38786;BME280;24535;45.508;12.252;2023-11-21T01:37:21;100893.81;;;13.02;61.29
38786;BME280;24535;45.508;12.252;2023-11-21T01:39:47;100908.00;;;13.01;60.96
38786;BME280;24535;45.508;12.252;2023-11-21T01:42:13;100902.81;;;12.99;61.02
38786;BME280;24535;45.508;12.252;2023-11-21T01:44:39;100895.63;;;13.01;61.04
38786;BME280;24535;45.508;12.252;2023-11-21T01:47:08;100891.38;;;12.99;61.55
38786;BME280;24535;45.508;12.252;2023-11-21T01:49:35;100880.19;;;12.95;61.40
38786;BME280;24535;45.508;12.252;2023-11-21T01:52:01;100878.50;;;12.94;61.24
38786;BME280;24535;45.508;12.252;2023-11-21T01:54:28;100881.03;;;12.96;61.31
38786;BME280;24535;45.508;12.252;2023-11-21T01:56:59;100876.69;;;12.95;61.39
38786;BME280;24535;45.508;12.252;2023-11-21T01:59:35;100887.50;;;12.92;61.55
38786;BME280;24535;45.508;12.252;2023-11-21T02:02:07;100874.41;;;12.90;60.93
38786;BME280;24535;45.508;12.252;2023-11-21T02:04:34;100863.09;;;12.88;60.85
38786;BME280;24535;45.508;12.252;2023-11-21T02:07:00;100864.19;;;12.85;60.91
38786;BME280;24535;45.508;12.252;2023-11-21T02:09:29;100883.53;;;12.86;61.32
38786;BME280;24535;45.508;12.252;2023-11-21T02:11:56;100880.75;;;12.87;60.98
38786;BME280;24535;45.508;12.252;2023-11-21T02:14:25;100861.41;;;12.87;61.34
38786;BME280;24535;45.508;12.252;2023-11-21T02:16:52;100858.06;;;12.85;61.50
38786;BME280;24535;45.508;12.252;2023-11-21T02:19:20;100852.84;;;12.83;60.97
38786;BME280;24535;45.508;12.252;2023-11-21T02:21:49;100858.16;;;12.83;60.81
38786;BME280;24535;45.508;12.252;2023-11-21T02:24:18;100855.63;;;12.82;61.54
38786;BME280;24535;45.508;12.252;2023-11-21T02:26:43;100849.59;;;12.80;61.44
38786;BME280;24535;45.508;12.252;2023-11-21T02:29:09;100849.72;;;12.78;60.83
38786;BME280;24535;45.508;12.252;2023-11-21T02:31:37;100840.94;;;12.78;61.50
38786;BME280;24535;45.508;12.252;2023-11-21T02:34:11;100851.75;;;12.75;60.76
38786;BME280;24535;45.508;12.252;2023-11-21T02:36:38;100849.22;;;12.73;61.07
38786;BME280;24535;45.508;12.252;2023-11-21T02:39:04;100848.38;;;12.73;60.72
38786;BME280;24535;45.508;12.252;2023-11-21T02:41:30;100849.31;;;12.72;61.22
38786;BME280;24535;45.508;12.252;2023-11-21T02:43:55;100850.28;;;12.71;61.21
38786;BME280;24535;45.508;12.252;2023-11-21T02:46:21;100855.56;;;12.71;61.07
38786;BME280;24535;45.508;12.252;2023-11-21T02:48:47;100851.38;;;12.68;61.32
38786;BME280;24535;45.508;12.252;2023-11-21T02:51:12;100856.03;;;12.65;60.56
38786;BME280;24535;45.508;12.252;2023-11-21T02:53:38;100858.69;;;12.65;61.51
38786;BME280;24535;45.508;12.252;2023-11-21T02:56:04;100851.59;;;12.65;61.05
38786;BME280;24535;45.508;12.252;2023-11-21T02:58:30;100849.03;;;12.63;60.70
38786;BME280;24535;45.508;12.252;2023-11-21T03:00:55;100845.69;;;12.61;60.72
38786;BME280;24535;45.508;12.252;2023-11-21T03:03:21;100853.75;;;12.60;60.99
38786;BME280;24535;45.508;12.252;2023-11-21T03:05:49;100847.59;;;12.59;60.74
38786;BME280;24535;45.508;12.252;2023-11-21T03:08:14;100836.31;;;12.57;61.12
38786;BME280;24535;45.508;12.252;2023-11-21T03:10:40;100837.13;;;12.58;60.89
38786;BME280;24535;45.508;12.252;2023-11-21T03:13:05;100828.38;;;12.57;60.79
38786;BME280;24535;45.508;12.252;2023-11-21T03:15:31;100818.84;;;12.55;61.16
38786;BME280;24535;45.508;12.252;2023-11-21T03:17:58;100822.59;;;12.52;60.57
38786;BME280;24535;45.508;12.252;2023-11-21T03:20:23;100815.59;;;12.51;60.98
38786;BME280;24535;45.508;12.252;2023-11-21T03:22:49;100812.13;;;12.51;61.05
38786;BME280;24535;45.508;12.252;2023-11-21T03:25:15;100815.84;;;12.48;60.96
38786;BME280;24535;45.508;12.252;2023-11-21T03:27:42;100808.84;;;12.47;61.17
38786;BME280;24535;45.508;12.252;2023-11-21T03:30:10;100805.63;;;12.44;60.86
38786;BME280;24535;45.508;12.252;2023-11-21T03:32:36;100798.63;;;12.43;60.69
38786;BME280;24535;45.508;12.252;2023-11-21T03:35:02;100805.00;;;12.40;61.11
38786;BME280;24535;45.508;12.252;2023-11-21T03:37:28;100811.34;;;12.37;60.53
38786;BME280;24535;45.508;12.252;2023-11-21T03:39:55;100806.06;;;12.37;61.24
38786;BME280;24535;45.508;12.252;2023-11-21T03:42:21;100793.91;;;12.35;60.82
38786;BME280;24535;45.508;12.252;2023-11-21T03:44:46;100795.81;;;12.33;60.67
38786;BME280;24535;45.508;12.252;2023-11-21T03:47:12;100795.81;;;12.33;61.51
38786;BME280;24535;45.508;12.252;2023-11-21T03:49:38;100790.03;;;12.28;60.83
38786;BME280;24535;45.508;12.252;2023-11-21T03:52:03;100792.69;;;12.28;60.83
38786;BME280;24535;45.508;12.252;2023-11-21T03:54:29;100789.31;;;12.26;60.84
38786;BME280;24535;45.508;12.252;2023-11-21T03:56:54;100780.66;;;12.24;60.92
38786;BME280;24535;45.508;12.252;2023-11-21T03:59:20;100778.25;;;12.21;60.92
38786;BME280;24535;45.508;12.252;2023-11-21T04:01:45;100770.41;;;12.19;61.39
38786;BME280;24535;45.508;12.252;2023-11-21T04:04:11;100763.22;;;12.21;61.18
38786;BME280;24535;45.508;12.252;2023-11-21T04:06:37;100758.91;;;12.20;60.78
38786;BME280;24535;45.508;12.252;2023-11-21T04:09:03;100763.56;;;12.17;61.54
38786;BME280;24535;45.508;12.252;2023-11-21T04:11:30;100764.63;;;12.14;61.10
38786;BME280;24535;45.508;12.252;2023-11-21T04:13:55;100775.09;;;12.16;61.02
38786;BME280;24535;45.508;12.252;2023-11-21T04:16:21;100779.63;;;12.13;61.08
38786;BME280;24535;45.508;12.252;2023-11-21T04:18:47;100775.31;;;12.12;60.82
38786;BME280;24535;45.508;12.252;2023-11-21T04:21:12;100775.41;;;12.11;61.54
38786;BME280;24535;45.508;12.252;2023-11-21T04:23:38;100773.63;;;12.11;61.21
38786;BME280;24535;45.508;12.252;2023-11-21T04:26:05;100768.44;;;12.10;60.98
38786;BME280;24535;45.508;12.252;2023-11-21T04:28:30;100772.06;;;12.09;60.67
38786;BME280;24535;45.508;12.252;2023-11-21T04:30:56;100768.56;;;12.08;60.85
38786;BME280;24535;45.508;12.252;2023-11-21T04:33:21;100764.13;;;12.09;60.83
38786;BME280;24535;45.508;12.252;2023-11-21T04:35:47;100775.53;;;12.09;61.08
38786;BME280;24535;45.508;12.252;2023-11-21T04:38:13;100769.53;;;12.07;61.29
38786;BME280;24535;45.508;12.252;2023-11-21T04:40:39;100771.22;;;12.08;61.08
38786;BME280;24535;45.508;12.252;2023-11-21T04:43:05;100767.47;;;12.11;60.86
38786;BME280;24535;45.508;12.252;2023-11-21T04:45:30;100758.84;;;12.09;61.19
38786;BME280;24535;45.508;12.252;2023-11-21T04:47:56;100764.13;;;12.09;60.73
38786;BME280;24535;45.508;12.252;2023-11-21T04:50:21;100765.94;;;12.08;61.23
38786;BME280;24535;45.508;12.252;2023-11-21T04:52:47;100758.00;;;12.08;60.53
38786;BME280;24535;45.508;12.252;2023-11-21T04:55:13;100757.25;;;12.06;61.12
38786;BME280;24535;45.508;12.252;2023-11-21T04:57:39;100757.25;;;12.06;61.41
38786;BME280;24535;45.508;12.252;2023-11-21T05:00:07;100754.75;;;12.05;61.55
38786;BME280;24535;45.508;12.252;2023-11-21T05:02:32;100750.44;;;12.04;60.88
38786;BME280;24535;45.508;12.252;2023-11-21T05:05:02;100755.72;;;12.04;61.52
38786;BME280;24535;45.508;12.252;2023-11-21T05:07:27;100753.91;;;12.04;60.84
38786;BME280;24535;45.508;12.252;2023-11-21T05:09:56;100753.91;;;12.04;61.00
38786;BME280;24535;45.508;12.252;2023-11-21T05:12:22;100755.72;;;12.04;61.51
38786;BME280;24535;45.508;12.252;2023-11-21T05:14:48;100760.16;;;12.03;61.54
38786;BME280;24535;45.508;12.252;2023-11-21T05:17:14;100768.06;;;12.03;61.04
38786;BME280;24535;45.508;12.252;2023-11-21T05:19:40;100766.34;;;12.02;61.29
38786;BME280;24535;45.508;12.252;2023-11-21T05:22:05;100776.19;;;12.00;60.91
38786;BME280;24535;45.508;12.252;2023-11-21T05:24:31;100770.19;;;11.98;61.38
38786;BME280;24535;45.508;12.252;2023-11-21T05:26:56;100781.69;;;11.97;60.80
38786;BME280;24535;45.508;12.252;2023-11-21T05:29:23;100778.44;;;11.94;61.25
38786;BME280;24535;45.508;12.252;2023-11-21T05:31:48;100774.44;;;11.88;60.87
38786;BME280;24535;45.508;12.252;2023-11-21T05:34:15;100770.13;;;11.87;61.38
38786;BME280;24535;45.508;12.252;2023-11-21T05:36:43;100772.03;;;11.85;61.30
38786;BME280;24535;45.508;12.252;2023-11-21T05:39:11;100765.13;;;11.82;60.88
38786;BME280;24535;45.508;12.252;2023-11-21T05:41:36;100760.94;;;11.80;61.36
38786;BME280;24535;45.508;12.252;2023-11-21T05:44:02;100769.06;;;11.77;61.07
38786;BME280;24535;45.508;12.252;2023-11-21T05:46:28;100770.09;;;11.74;61.22
38786;BME280;24535;45.508;12.252;2023-11-21T05:48:53;100770.94;;;11.75;61.06
38786;BME280;24535;45.508;12.252;2023-11-21T05:51:18;100772.03;;;11.72;61.18
38786;BME280;24535;45.508;12.252;2023-11-21T05:53:44;100773.69;;;11.73;61.78
38786;BME280;24535;45.508;12.252;2023-11-21T05:56:10;100770.44;;;11.70;61.39
38786;BME280;24535;45.508;12.252;2023-11-21T05:58:35;100765.28;;;11.68;61.00
38786;BME280;24535;45.508;12.252;2023-11-21T06:01:01;100760.22;;;11.65;61.92
38786;BME280;24535;45.508;12.252;2023-11-21T06:03:26;100768.25;;;11.63;61.30
38786;BME280;24535;45.508;12.252;2023-11-21T06:05:51;100761.25;;;11.62;61.20
38786;BME280;24535;45.508;12.252;2023-11-21T06:08:17;100767.50;;;11.61;61.21
38786;BME280;24535;45.508;12.252;2023-11-21T06:10:43;100759.78;;;11.58;61.49
38786;BME280;24535;45.508;12.252;2023-11-21T06:13:09;100765.94;;;11.59;61.87
38786;BME280;24535;45.508;12.252;2023-11-21T06:15:36;100765.06;;;11.58;61.36
38786;BME280;24535;45.508;12.252;2023-11-21T06:18:01;100766.66;;;11.61;61.62
38786;BME280;24535;45.508;12.252;2023-11-21T06:20:27;100765.69;;;11.62;61.62
38786;BME280;24535;45.508;12.252;2023-11-21T06:22:53;100765.81;;;11.60;61.25
38786;BME280;24535;45.508;12.252;2023-11-21T06:25:19;100770.47;;;11.57;61.47
38786;BME280;24535;45.508;12.252;2023-11-21T06:27:46;100773.22;;;11.55;61.22
38786;BME280;24535;45.508;12.252;2023-11-21T06:30:13;100776.78;;;11.54;61.29
38786;BME280;24535;45.508;12.252;2023-11-21T06:32:40;100775.94;;;11.54;61.77
38786;BME280;24535;45.508;12.252;2023-11-21T06:35:07;100775.31;;;11.50;61.78
38786;BME280;24535;45.508;12.252;2023-11-21T06:37:33;100774.59;;;11.48;61.88
38786;BME280;24535;45.508;12.252;2023-11-21T06:40:00;100780.91;;;11.46;61.51
38786;BME280;24535;45.508;12.252;2023-11-21T06:42:26;100785.34;;;11.45;61.43
38786;BME280;24535;45.508;12.252;2023-11-21T06:44:52;100780.91;;;11.46;61.86
38786;BME280;24535;45.508;12.252;2023-11-21T06:47:19;100783.69;;;11.44;61.60
38786;BME280;24535;45.508;12.252;2023-11-21T06:49:50;100783.69;;;11.44;61.45
38786;BME280;24535;45.508;12.252;2023-11-21T06:52:16;100781.16;;;11.43;62.03
38786;BME280;24535;45.508;12.252;2023-11-21T06:54:42;100785.69;;;11.41;62.13
38786;BME280;24535;45.508;12.252;2023-11-21T06:57:07;100785.56;;;11.42;61.81
38786;BME280;24535;45.508;12.252;2023-11-21T06:59:33;100783.81;;;11.43;61.75
38786;BME280;24535;45.508;12.252;2023-11-21T07:01:59;100776.72;;;11.43;62.21
38786;BME280;24535;45.508;12.252;2023-11-21T07:04:24;100783.47;;;11.47;62.38
38786;BME280;24535;45.508;12.252;2023-11-21T07:06:56;100791.16;;;11.50;62.40
38786;BME280;24535;45.508;12.252;2023-11-21T07:09:21;100795.25;;;11.54;62.17
38786;BME280;24535;45.508;12.252;2023-11-21T07:11:50;100784.50;;;11.57;62.18
38786;BME280;24535;45.508;12.252;2023-11-21T07:14:15;100779.84;;;11.61;62.74
38786;BME280;24535;45.508;12.252;2023-11-21T07:16:42;100785.75;;;11.64;62.24
38786;BME280;24535;45.508;12.252;2023-11-21T07:19:08;100778.56;;;11.67;62.07
38786;BME280;24535;45.508;12.252;2023-11-21T07:21:37;100783.53;;;11.71;62.08
38786;BME280;24535;45.508;12.252;2023-11-21T07:24:04;100786.06;;;11.73;62.21
38786;BME280;24535;45.508;12.252;2023-11-21T07:26:30;100794.69;;;11.75;61.93
38786;BME280;24535;45.508;12.252;2023-11-21T07:28:56;100791.97;;;11.76;61.73
38786;BME280;24535;45.508;12.252;2023-11-21T07:31:22;100791.84;;;11.78;62.00
38786;BME280;24535;45.508;12.252;2023-11-21T07:33:48;100789.00;;;11.81;62.22
38786;BME280;24535;45.508;12.252;2023-11-21T07:36:14;100787.13;;;11.83;62.20
38786;BME280;24535;45.508;12.252;2023-11-21T07:38:40;100779.94;;;11.85;62.43
38786;BME280;24535;45.508;12.252;2023-11-21T07:41:06;100784.16;;;11.87;62.12
38786;BME280;24535;45.508;12.252;2023-11-21T07:43:34;100783.00;;;11.92;61.87
38786;BME280;24535;45.508;12.252;2023-11-21T07:46:04;100788.03;;;11.95;61.96
38786;BME280;24535;45.508;12.252;2023-11-21T07:48:30;100776.28;;;11.99;62.16
38786;BME280;24535;45.508;12.252;2023-11-21T07:50:57;100780.41;;;12.03;61.88
38786;BME280;24535;45.508;12.252;2023-11-21T07:53:24;100772.19;;;12.07;61.94
38786;BME280;24535;45.508;12.252;2023-11-21T07:55:51;100776.16;;;12.13;62.00
38786;BME280;24535;45.508;12.252;2023-11-21T07:58:16;100780.13;;;12.19;61.50
38786;BME280;24535;45.508;12.252;2023-11-21T08:00:41;100771.78;;;12.25;61.42
38786;BME280;24535;45.508;12.252;2023-11-21T08:03:07;100782.50;;;12.34;62.16
38786;BME280;24535;45.508;12.252;2023-11-21T08:05:33;100786.38;;;12.42;61.65
38786;BME280;24535;45.508;12.252;2023-11-21T08:07:58;100783.41;;;12.46;61.33
38786;BME280;24535;45.508;12.252;2023-11-21T08:10:24;100787.50;;;12.50;61.93
38786;BME280;24535;45.508;12.252;2023-11-21T08:12:50;100778.59;;;12.51;61.79
38786;BME280;24535;45.508;12.252;2023-11-21T08:15:15;100774.06;;;12.53;61.46
38786;BME280;24535;45.508;12.252;2023-11-21T08:17:41;100758.22;;;12.53;61.14
38786;BME280;24535;45.508;12.252;2023-11-21T08:20:07;100762.94;;;12.61;61.47
38786;BME280;24535;45.508;12.252;2023-11-21T08:22:34;100765.09;;;12.67;61.64
38786;BME280;24535;45.508;12.252;2023-11-21T08:24:59;100762.00;;;12.73;61.56
38786;BME280;24535;45.508;12.252;2023-11-21T08:27:25;100762.47;;;12.78;60.78
38786;BME280;24535;45.508;12.252;2023-11-21T08:29:50;100754.19;;;12.83;61.56
38786;BME280;24535;45.508;12.252;2023-11-21T08:32:17;100765.16;;;12.90;60.52
38786;BME280;24535;45.508;12.252;2023-11-21T08:34:43;100763.34;;;12.90;60.68
38786;BME280;24535;45.508;12.252;2023-11-21T08:37:10;100760.50;;;12.93;60.43
38786;BME280;24535;45.508;12.252;2023-11-21T08:39:37;100754.72;;;12.99;60.98
38786;BME280;24535;45.508;12.252;2023-11-21T08:42:03;100751.63;;;13.05;61.07
38786;BME280;24535;45.508;12.252;2023-11-21T08:44:29;100752.56;;;13.16;60.28
38786;BME280;24535;45.508;12.252;2023-11-21T08:46:55;100745.25;;;13.19;60.91
38786;BME280;24535;45.508;12.252;2023-11-21T08:49:21;100763.34;;;13.25;60.90
38786;BME280;24535;45.508;12.252;2023-11-21T08:51:46;100764.78;;;13.29;60.66
38786;BME280;24535;45.508;12.252;2023-11-21T08:54:12;100774.25;;;13.32;60.04
38786;BME280;24535;45.508;12.252;2023-11-21T08:56:38;100770.53;;;13.34;60.09
38786;BME280;24535;45.508;12.252;2023-11-21T08:59:03;100777.50;;;13.35;60.32
38786;BME280;24535;45.508;12.252;2023-11-21T09:01:29;100782.56;;;13.39;59.83
38786;BME280;24535;45.508;12.252;2023-11-21T09:03:57;100772.59;;;13.42;60.31
38786;BME280;24535;45.508;12.252;2023-11-21T09:06:23;100777.03;;;13.42;59.89
38786;BME280;24535;45.508;12.252;2023-11-21T09:08:49;100778.72;;;13.43;60.05
38786;BME280;24535;45.508;12.252;2023-11-21T09:11:15;100767.06;;;13.45;60.08
38786;BME280;24535;45.508;12.252;2023-11-21T09:13:40;100766.81;;;13.48;59.54
38786;BME280;24535;45.508;12.252;2023-11-21T09:16:06;100785.47;;;13.58;60.03
38786;BME280;24535;45.508;12.252;2023-11-21T09:18:32;100783.44;;;13.62;59.80
38786;BME280;24535;45.508;12.252;2023-11-21T09:20:57;100776.19;;;13.64;60.70
38786;BME280;24535;45.508;12.252;2023-11-21T09:23:24;100781.13;;;13.68;59.91
38786;BME280;24535;45.508;12.252;2023-11-21T09:25:49;100770.41;;;13.70;60.56
38786;BME280;24535;45.508;12.252;2023-11-21T09:28:17;100775.34;;;13.74;60.63
38786;BME280;24535;45.508;12.252;2023-11-21T09:30:43;100775.13;;;13.77;60.67
38786;BME280;24535;45.508;12.252;2023-11-21T09:33:09;100767.75;;;13.81;60.55
38786;BME280;24535;45.508;12.252;2023-11-21T09:35:38;100771.97;;;13.83;60.31
38786;BME280;24535;45.508;12.252;2023-11-21T09:38:04;100770.88;;;13.86;60.29
38786;BME280;24535;45.508;12.252;2023-11-21T09:40:37;100770.63;;;13.89;59.66
38786;BME280;24535;45.508;12.252;2023-11-21T09:43:08;100771.22;;;13.93;60.26
38786;BME280;24535;45.508;12.252;2023-11-21T09:45:46;100770.84;;;13.97;59.98
38786;BME280;24535;45.508;12.252;2023-11-21T09:48:13;100769.91;;;13.98;59.90
38786;BME280;24535;45.508;12.252;2023-11-21T09:50:42;100778.31;;;14.03;60.32
38786;BME280;24535;45.508;12.252;2023-11-21T09:53:18;100778.91;;;14.07;59.95
38786;BME280;24535;45.508;12.252;2023-11-21T09:55:47;100784.06;;;14.08;60.10
38786;BME280;24535;45.508;12.252;2023-11-21T09:58:16;100768.91;;;14.10;60.50
38786;BME280;24535;45.508;12.252;2023-11-21T10:00:46;100782.75;;;14.14;60.03
38786;BME280;24535;45.508;12.252;2023-11-21T10:03:12;100787.91;;;14.16;60.79
38786;BME280;24535;45.508;12.252;2023-11-21T10:05:39;100772.84;;;14.16;60.62
38786;BME280;24535;45.508;12.252;2023-11-21T10:08:09;100774.28;;;14.20;60.42
38786;BME280;24535;45.508;12.252;2023-11-21T10:10:36;100777.78;;;14.21;60.54
38786;BME280;24535;45.508;12.252;2023-11-21T10:13:06;100790.63;;;14.25;60.39
38786;BME280;24535;45.508;12.252;2023-11-21T10:15:35;100774.88;;;14.24;60.55
38786;BME280;24535;45.508;12.252;2023-11-21T10:18:06;100771.97;;;14.27;60.11
38786;BME280;24535;45.508;12.252;2023-11-21T10:20:33;100767.63;;;14.26;60.72
38786;BME280;24535;45.508;12.252;2023-11-21T10:23:03;100756.91;;;14.27;60.81
38786;BME280;24535;45.508;12.252;2023-11-21T10:25:30;100756.91;;;14.27;60.11
38786;BME280;24535;45.508;12.252;2023-11-21T10:28:01;100757.75;;;14.28;60.58
38786;BME280;24535;45.508;12.252;2023-11-21T10:30:34;100750.50;;;14.30;60.82
38786;BME280;24535;45.508;12.252;2023-11-21T10:33:02;100746.06;;;14.30;60.78
38786;BME280;24535;45.508;12.252;2023-11-21T10:35:43;100744.13;;;14.32;61.24
38786;BME280;24535;45.508;12.252;2023-11-21T10:38:14;100738.22;;;14.29;60.68
38786;BME280;24535;45.508;12.252;2023-11-21T10:40:43;100746.06;;;14.30;60.72
38786;BME280;24535;45.508;12.252;2023-11-21T10:43:10;100739.22;;;14.28;60.91
38786;BME280;24535;45.508;12.252;2023-11-21T10:45:38;100744.50;;;14.28;61.02
38786;BME280;24535;45.508;12.252;2023-11-21T10:48:08;100739.81;;;14.31;61.30
38786;BME280;24535;45.508;12.252;2023-11-21T10:50:36;100729.06;;;14.33;60.77
38786;BME280;24535;45.508;12.252;2023-11-21T10:53:03;100727.13;;;14.35;61.47
38786;BME280;24535;45.508;12.252;2023-11-21T10:55:30;100722.69;;;14.35;61.15
38786;BME280;24535;45.508;12.252;2023-11-21T10:57:59;100716.41;;;14.37;60.70
38786;BME280;24535;45.508;12.252;2023-11-21T11:00:26;100715.31;;;14.39;61.25
38786;BME280;24535;45.508;12.252;2023-11-21T11:02:53;100709.88;;;14.41;60.89
38786;BME280;24535;45.508;12.252;2023-11-21T11:05:23;100704.47;;;14.42;61.00
38786;BME280;24535;45.508;12.252;2023-11-21T11:08:05;100705.03;;;14.46;61.42
38786;BME280;24535;45.508;12.252;2023-11-21T11:10:31;100698.63;;;14.48;61.07
38786;BME280;24535;45.508;12.252;2023-11-21T11:12:57;100700.34;;;14.49;61.33
38786;BME280;24535;45.508;12.252;2023-11-21T11:15:23;100698.16;;;14.54;60.88
38786;BME280;24535;45.508;12.252;2023-11-21T11:17:49;100703.34;;;14.56;60.76
38786;BME280;24535;45.508;12.252;2023-11-21T11:20:16;100704.16;;;14.56;60.69
38786;BME280;24535;45.508;12.252;2023-11-21T11:22:59;100700.44;;;14.59;60.41
38786;BME280;24535;45.508;12.252;2023-11-21T11:28:22;100688.69;;;14.62;60.37
38786;BME280;24535;45.508;12.252;2023-11-21T11:33:58;100685.09;;;14.63;59.94
38786;BME280;24535;45.508;12.252;2023-11-21T11:36:35;100684.81;;;14.66;60.29
38786;BME280;24535;45.508;12.252;2023-11-21T11:39:01;100684.81;;;14.66;60.16
38786;BME280;24535;45.508;12.252;2023-11-21T11:41:30;100675.91;;;14.67;60.04
38786;BME280;24535;45.508;12.252;2023-11-21T11:43:58;100683.59;;;14.70;60.34
38786;BME280;24535;45.508;12.252;2023-11-21T11:46:44;100680.94;;;14.70;59.30
38786;BME280;24535;45.508;12.252;2023-11-21T11:49:23;100674.53;;;14.72;59.56
38786;BME280;24535;45.508;12.252;2023-11-21T11:54:55;100666.34;;;14.75;60.08
38786;BME280;24535;45.508;12.252;2023-11-21T11:57:24;100675.13;;;14.76;60.02
38786;BME280;24535;45.508;12.252;2023-11-21T12:02:38;100661.47;;;14.80;59.60
38786;BME280;24535;45.508;12.252;2023-11-21T12:05:09;100670.00;;;14.84;59.47
38786;BME280;24535;45.508;12.252;2023-11-21T12:10:14;100662.22;;;14.92;59.71
38786;BME280;24535;45.508;12.252;2023-11-21T12:12:44;100666.56;;;14.93;59.20
38786;BME280;24535;45.508;12.252;2023-11-21T12:15:11;100661.97;;;14.95;59.13
38786;BME280;24535;45.508;12.252;2023-11-21T12:17:38;100656.25;;;15.00;59.13
38786;BME280;24535;45.508;12.252;2023-11-21T12:20:04;100664.78;;;15.03;59.27
38786;BME280;24535;45.508;12.252;2023-11-21T12:22:31;100661.03;;;15.06;58.84
38786;BME280;24535;45.508;12.252;2023-11-21T12:24:57;100668.56;;;15.11;59.56
38786;BME280;24535;45.508;12.252;2023-11-21T12:27:22;100677.09;;;15.14;58.82
38786;BME280;24535;45.508;12.252;2023-11-21T12:29:48;100668.31;;;15.14;58.83
38786;BME280;24535;45.508;12.252;2023-11-21T12:32:13;100674.34;;;15.16;58.75
38786;BME280;24535;45.508;12.252;2023-11-21T12:34:43;100683.25;;;15.15;58.79
38786;BME280;24535;45.508;12.252;2023-11-21T12:37:09;100677.94;;;15.15;58.80
38786;BME280;24535;45.508;12.252;2023-11-21T12:39:34;100693.50;;;15.19;58.45
38786;BME280;24535;45.508;12.252;2023-11-21T12:42:00;100696.00;;;15.21;58.40
38786;BME280;24535;45.508;12.252;2023-11-21T12:44:25;100686.38;;;15.20;58.17
38786;BME280;24535;45.508;12.252;2023-11-21T12:46:51;100694.34;;;15.20;58.51
38786;BME280;24535;45.508;12.252;2023-11-21T12:49:18;100689.59;;;15.23;58.16
38786;BME280;24535;45.508;12.252;2023-11-21T12:51:46;100694.03;;;15.23;58.51
38786;BME280;24535;45.508;12.252;2023-11-21T12:54:12;100687.78;;;15.24;58.37